Delta Virtual Airport Information Service

New York John F. Kennedy International Airport

ICAO: KJFK Country: United States
Latitude: 40.6398 Longitude: -73.7789
Latest Arrival : DALJUMP (KFAT-KJFK) Latest Departure : DAL442 (1A) (KJFK-MKJS)


WX CaptureLIVE
Data provided by noaa.gov | Fetched at 22:49:57

METAR : KJFK 240251Z 21005KT 8SM -DZ BKN007 OVC014 17/16 A3008 RMK AO2 DZB49 SLP184 P0000 60000 T01720161 55006 $

TAF : KJFK 240238Z 2403/2506 20005KT P6SM BKN007 OVC011 FM240700 21005KT 3SM -DZ BR OVC005 TEMPO 2407/2411 2SM -DZ BR FM241500 24008KT P6SM SCT012 BKN020 FM241900 28006KT P6SM BKN035 FM242100 32008G18KT P6SM BKN040 FM250100 34010G16KT P6SM SCT090


Runway Data for KJFK
Data provided by openaviationdata.com

Runway ID Mag Var Hdg Length Elevation Surface ILS Freq ILS Id ILS Slope
04L -14 44° 11353 ft 13 ft Asphalt 110.9 IHIQ 3
04R -14 44° 8401 ft 13 ft Asphalt 109.5 IJFK 3
13L -14 134° 9992 ft 13 ft Asphalt 111.5 ITLK 3
13R -14 134° 14564 ft 13 ft Asphalt -- -- --
22L -14 224° 8401 ft 13 ft Asphalt 110.9 IIWY 3
22R -14 224° 11353 ft 13 ft Asphalt 109.5 IJOC 3
31L -14 314° 14564 ft 13 ft Asphalt 111.35 IMOH 3
31R -14 314° 9992 ft 13 ft Asphalt 111.5 IRTH 3

New York John F. Kennedy International Airport, United States
Use only for reference purposes



Not for navigational purposes.